createdAt,value
2019-06-27T00:04:55.301Z,2.43
2019-06-27T00:09:58.276Z,2.60
2019-06-27T00:15:00.034Z,2.63
2019-06-27T00:20:02.099Z,3.07
2019-06-27T00:25:04.929Z,2.53
2019-06-27T00:30:07.467Z,2.97
2019-06-27T00:35:09.341Z,2.67
2019-06-27T00:40:11.691Z,3.30
2019-06-27T00:45:14.665Z,3.50
2019-06-27T00:50:17.094Z,3.20
2019-06-27T00:55:19.038Z,3.40
2019-06-27T01:00:21.088Z,3.43
2019-06-27T01:05:23.006Z,3.47
2019-06-27T01:10:25.004Z,3.33
2019-06-27T01:15:27.058Z,3.03
2019-06-27T01:20:29.818Z,3.53
2019-06-27T01:25:31.816Z,3.37
2019-06-27T01:30:33.811Z,3.90
2019-06-27T01:35:36.884Z,3.90
2019-06-27T01:40:38.801Z,4.13
2019-06-27T01:45:48.766Z,4.03
2019-06-27T01:50:50.637Z,3.97
2019-06-27T01:55:52.707Z,3.83
2019-06-27T02:03:48.771Z,4.67
2019-06-27T02:08:50.638Z,4.20
2019-06-27T02:13:52.519Z,4.70
2019-06-27T02:18:54.299Z,4.73
2019-06-27T02:23:56.374Z,4.57
2019-06-27T02:28:58.188Z,4.93
2019-06-27T02:34:00.043Z,4.70
2019-06-27T02:39:01.979Z,5.00
2019-06-27T02:44:03.988Z,5.00
2019-06-27T02:49:05.976Z,4.87
2019-06-27T02:54:07.823Z,4.33
2019-06-27T02:59:09.671Z,5.53
2019-06-27T03:04:11.597Z,4.73
2019-06-27T03:09:13.423Z,4.70
2019-06-27T03:14:15.256Z,5.30
2019-06-27T03:19:17.163Z,4.50
2019-06-27T03:24:18.977Z,4.60
2019-06-27T03:29:21.963Z,4.50
2019-06-27T03:34:24.893Z,4.53
2019-06-27T03:39:26.694Z,4.57
2019-06-27T03:44:28.670Z,4.90
2019-06-27T03:49:30.826Z,5.63
2019-06-27T03:54:32.706Z,4.53
2019-06-27T03:59:34.755Z,4.23
2019-06-27T04:04:36.712Z,4.00
2019-06-27T04:09:38.536Z,3.67
2019-06-27T04:14:40.350Z,4.20
2019-06-27T04:19:42.213Z,3.90
2019-06-27T04:24:44.171Z,3.77
2019-06-27T04:29:45.968Z,3.60
2019-06-27T04:34:48.747Z,3.77
2019-06-27T04:39:51.211Z,3.27
2019-06-27T04:44:53.060Z,3.10
2019-06-27T04:49:54.988Z,3.50
2019-06-27T04:54:57.081Z,3.27
2019-06-27T04:59:59.730Z,3.10
2019-06-27T05:05:02.330Z,3.53
2019-06-27T05:10:04.794Z,3.43
2019-06-27T05:15:06.849Z,3.90
2019-06-27T05:20:09.112Z,3.53
2019-06-27T05:25:11.144Z,3.70
2019-06-27T05:30:13.645Z,2.60
2019-06-27T05:35:18.144Z,2.47
2019-06-27T05:40:20.197Z,2.77
2019-06-27T05:50:50.266Z,2.53
2019-06-27T05:55:52.210Z,2.07
2019-06-27T06:00:54.151Z,2.60
2019-06-27T06:05:56.068Z,2.43
2019-06-27T06:10:57.966Z,2.60
2019-06-27T06:16:01.079Z,2.50
2019-06-27T06:21:03.520Z,2.50
2019-06-27T06:26:05.503Z,2.20
2019-06-27T06:31:07.432Z,1.93
2019-06-27T06:36:09.536Z,2.23
2019-06-27T06:41:11.403Z,2.00
2019-06-27T06:46:21.595Z,2.20
2019-06-27T06:51:27.033Z,2.40
2019-06-27T06:56:28.844Z,2.03
2019-06-27T07:01:30.791Z,2.40
2019-06-27T07:06:32.712Z,2.30
2019-06-27T07:11:34.473Z,2.30
2019-06-27T07:16:36.348Z,2.23
2019-06-27T07:21:38.234Z,1.70
2019-06-27T07:26:40.098Z,2.13
2019-06-27T07:31:41.981Z,1.83
2019-06-27T07:36:43.804Z,1.30
2019-06-27T07:41:45.624Z,2.00
2019-06-27T07:46:47.455Z,1.60
2019-06-27T07:51:50.988Z,1.40
2019-06-27T07:56:52.817Z,1.60
2019-06-27T08:01:54.674Z,1.37
2019-06-27T08:06:56.512Z,1.87
2019-06-27T08:11:58.424Z,1.30
2019-06-27T08:17:00.202Z,1.13
2019-06-27T08:22:02.116Z,1.60
2019-06-27T08:27:05.434Z,1.40
2019-06-27T08:32:07.566Z,1.73
2019-06-27T08:37:09.603Z,1.57
2019-06-27T08:42:12.413Z,1.37
2019-06-27T08:47:14.331Z,1.47
2019-06-27T08:52:16.149Z,1.70
2019-06-27T08:57:17.996Z,1.63
2019-06-27T09:02:19.796Z,1.60
2019-06-27T09:07:21.672Z,1.40
2019-06-27T09:12:23.893Z,1.57
2019-06-27T09:17:25.732Z,1.07
2019-06-27T09:22:27.698Z,1.37
2019-06-27T09:27:29.553Z,1.50
2019-06-27T09:32:31.339Z,1.50
2019-06-27T09:37:34.359Z,1.70
2019-06-27T09:42:36.326Z,1.43
2019-06-27T09:47:38.149Z,1.80
2019-06-27T09:52:39.957Z,1.70
2019-06-27T09:57:41.879Z,1.70
2019-06-27T10:02:43.673Z,1.70
2019-06-27T10:07:47.560Z,2.23
2019-06-27T10:12:49.616Z,2.60
2019-06-27T10:17:51.538Z,2.43
2019-06-27T10:22:53.571Z,2.73
2019-06-27T10:27:55.475Z,2.63
2019-06-27T10:32:59.733Z,2.20
2019-06-27T10:38:01.133Z,1.60
2019-06-27T10:43:03.032Z,1.93
2019-06-27T10:48:04.892Z,2.03
2019-06-27T10:53:06.694Z,1.77
2019-06-27T10:58:08.542Z,1.73
2019-06-27T11:03:15.346Z,1.83
2019-06-27T11:08:14.019Z,1.77
2019-06-27T11:13:15.892Z,1.70
2019-06-27T11:18:21.147Z,1.20
2019-06-27T11:23:21.424Z,1.50
2019-06-27T11:28:23.242Z,1.60
2019-06-27T11:33:32.264Z,1.30
2019-06-27T11:38:28.819Z,1.80
2019-06-27T11:43:30.646Z,1.47
2019-06-27T11:48:32.631Z,1.40
2019-06-27T11:53:34.456Z,1.67
2019-06-27T11:58:36.330Z,1.60
2019-06-27T12:03:48.707Z,1.40
2019-06-27T12:08:42.203Z,1.43
2019-06-27T12:13:45.185Z,1.60
2019-06-27T12:18:47.019Z,1.30
2019-06-27T12:23:48.941Z,1.43
2019-06-27T12:28:50.912Z,1.60
2019-06-27T12:34:06.391Z,1.70
2019-06-27T12:38:56.539Z,2.00
2019-06-27T12:43:58.341Z,1.57
2019-06-27T12:49:00.174Z,1.30
2019-06-27T12:54:03.690Z,1.57
2019-06-27T12:59:05.606Z,1.57
2019-06-27T13:04:22.298Z,1.50
2019-06-27T13:09:11.188Z,1.30
2019-06-27T13:14:13.111Z,2.10
2019-06-27T13:19:16.305Z,2.80
2019-06-27T13:24:18.110Z,3.57
2019-06-27T13:29:20.220Z,2.63
2019-06-27T13:34:39.057Z,3.10
2019-06-27T13:39:27.189Z,2.27
2019-06-27T13:44:29.682Z,1.37
2019-06-27T13:49:31.474Z,1.53
2019-06-27T13:54:33.313Z,1.00
2019-06-27T13:59:35.416Z,1.00
2019-06-27T14:04:37.411Z,1.10
2019-06-27T14:09:52.253Z,1.00
2019-06-27T14:14:58.884Z,1.43
2019-06-27T14:19:49.888Z,1.20
2019-06-27T14:24:50.535Z,1.23
2019-06-27T14:29:52.313Z,1.53
2019-06-27T14:34:54.258Z,1.17
2019-06-27T14:45:55.269Z,1.30
2019-06-27T14:50:57.127Z,1.43
2019-06-27T14:55:58.947Z,1.60
2019-06-27T15:01:04.558Z,1.30
2019-06-27T15:06:04.634Z,1.20
2019-06-27T15:11:09.111Z,1.10
2019-06-27T15:16:12.471Z,1.40
2019-06-27T15:21:15.427Z,1.43
2019-06-27T15:26:17.388Z,1.47
2019-06-27T15:31:22.270Z,1.70
2019-06-27T15:36:22.982Z,1.60
2019-06-27T15:41:24.839Z,1.30
2019-06-27T15:46:26.719Z,1.63
2019-06-27T15:51:28.593Z,1.33
2019-06-27T15:56:31.769Z,1.50
2019-06-27T16:01:33.624Z,1.50
2019-06-27T16:06:36.647Z,1.60
2019-06-27T16:11:38.595Z,1.30
2019-06-27T16:16:40.715Z,1.47
2019-06-27T16:21:42.575Z,1.40
2019-06-27T16:26:44.611Z,1.60
2019-06-27T16:31:46.438Z,1.40
2019-06-27T16:36:48.424Z,1.67
2019-06-27T16:41:50.251Z,1.47
2019-06-27T16:46:52.153Z,1.43
2019-06-27T16:51:54.606Z,1.43
2019-06-27T16:56:56.762Z,1.70
2019-06-27T17:01:58.619Z,1.80
2019-06-27T17:07:00.444Z,1.77
2019-06-27T17:12:02.401Z,1.80
2019-06-27T17:17:04.250Z,1.80
2019-06-27T17:22:06.169Z,2.20
2019-06-27T17:27:08.068Z,2.13
2019-06-27T17:32:10.007Z,2.20
2019-06-27T17:37:11.912Z,2.17
2019-06-27T17:42:16.312Z,2.07
2019-06-27T17:47:19.653Z,2.20
2019-06-27T17:52:23.138Z,2.53
2019-06-27T17:57:26.487Z,2.50
2019-06-27T18:02:30.978Z,2.50
2019-06-27T18:07:34.742Z,2.17
2019-06-27T18:12:37.825Z,2.00
2019-06-27T18:17:40.773Z,2.10
2019-06-27T18:22:44.839Z,1.73
2019-06-27T18:33:31.468Z,2.60
2019-06-27T18:38:33.282Z,1.50
2019-06-27T18:43:35.115Z,1.60
2019-06-27T18:48:36.955Z,1.37
2019-06-27T18:53:39.056Z,1.57
2019-06-27T18:58:40.960Z,1.10
2019-06-27T19:03:42.762Z,1.50
2019-06-27T19:08:44.643Z,1.10
2019-06-27T19:13:46.449Z,1.23
2019-06-27T19:18:55.496Z,0.90
2019-06-27T19:24:09.671Z,1.20
2019-06-27T19:29:11.497Z,1.00
2019-06-27T19:34:13.298Z,1.00
2019-06-27T19:39:15.164Z,1.20
2019-06-27T19:44:17.149Z,0.80
2019-06-27T19:49:19.956Z,1.03
2019-06-27T19:54:21.716Z,1.23
2019-06-27T19:59:25.550Z,1.20
2019-06-27T20:04:33.816Z,0.97
2019-06-27T20:09:35.800Z,1.13
2019-06-27T20:14:41.324Z,1.00
2019-06-27T20:19:45.333Z,1.30
2019-06-27T20:24:47.913Z,1.20
2019-06-27T20:29:49.914Z,1.40
2019-06-27T20:34:53.821Z,1.67
2019-06-27T20:39:57.662Z,1.40
2019-06-27T20:45:01.296Z,1.60
2019-06-27T20:50:06.363Z,1.23
2019-06-27T20:55:10.472Z,1.47
2019-06-27T21:00:14.926Z,1.00
2019-06-27T21:05:19.056Z,1.37
2019-06-27T21:10:23.572Z,1.13
2019-06-27T21:15:28.139Z,1.10
2019-06-27T21:20:32.576Z,0.90
2019-06-27T21:25:36.987Z,1.53
2019-06-27T21:30:39.127Z,0.70
2019-06-27T21:35:41.094Z,0.80
2019-06-27T21:40:44.901Z,1.23
2019-06-27T21:45:48.534Z,0.83
2019-06-27T21:50:53.455Z,0.80
2019-06-27T21:55:57.571Z,0.67
2019-06-27T22:01:03.333Z,0.70
2019-06-27T22:06:07.722Z,0.70
2019-06-27T22:11:11.644Z,0.70
2019-06-27T22:16:14.583Z,0.70
2019-06-27T22:21:17.807Z,0.73
2019-06-27T22:26:19.961Z,0.87
2019-06-27T22:31:21.831Z,1.10
2019-06-27T22:36:24.922Z,0.90
2019-06-27T22:46:54.003Z,1.13
2019-06-27T22:52:22.150Z,1.00
2019-06-27T22:57:23.977Z,1.27
2019-06-27T23:02:25.815Z,0.67
2019-06-27T23:07:27.715Z,1.00
2019-06-27T23:12:29.574Z,1.10
2019-06-27T23:17:31.433Z,1.00
2019-06-27T23:22:33.389Z,1.00
2019-06-27T23:27:35.341Z,1.03
2019-06-27T23:32:37.148Z,0.90
2019-06-27T23:37:39.086Z,0.93
2019-06-27T23:42:40.943Z,1.30
2019-06-27T23:47:42.854Z,1.03
2019-06-27T23:52:44.658Z,1.20
2019-06-27T23:57:46.462Z,1.20
